FAWB/PRY METAR and TAF weather

Enter ICAO airport designator
Station Type Date Time Source
FAWB METAR 2021/08/02 01:00 UTC NOAA

FAWB 020100Z AUTO 23003KT //// // ////// 10/M03 Q1026


Station Type Date Time Source
FAWB Decoded METAR 2021/08/02 01:00 UTC NOAA

Wonderboom / Pretoria, South Africa (FAWB) 25-39S 028-13E
Aug 01, 2021 - 09:00 PM EDT / 2021.08.02 0100 UTC
Wind: from the SW (230 degrees) at 3 MPH (3 KT):0
Temperature: 50 F (10 C)
Dew Point: 26 F (-3 C)
Relative Humidity: 39%
Pressure (altimeter): 30.30 in. Hg (1026 hPa)
ob: FAWB 020100Z AUTO 23003KT //// // ////// 10/M03 Q1026
cycle: 1

Station Type Date Time Source
FAWB TAF 2021/05/05 07:00 UTC NOAA

TAF FAWB 050608Z 0507/0518 VRB03KT CAVOK TX24/0512Z TN15/0518Z

Example: see airport list